createdAt,value
2022-08-20T00:00:12.857Z,46.79
2022-08-20T00:02:42.038Z,47.12
2022-08-20T00:05:10.074Z,46.92
2022-08-20T00:07:37.374Z,46.99
2022-08-20T00:10:07.078Z,46.59
2022-08-20T00:12:36.814Z,46.76
2022-08-20T00:15:06.515Z,46.97
2022-08-20T00:17:33.676Z,46.82
2022-08-20T00:20:00.854Z,46.59
2022-08-20T00:22:28.058Z,47.63
2022-08-20T00:24:55.195Z,47.31
2022-08-20T00:27:22.743Z,47.93
2022-08-20T00:29:51.336Z,47.55
2022-08-20T00:32:18.595Z,47.62
2022-08-20T00:34:45.955Z,47.38
2022-08-20T00:37:13.096Z,47.81
2022-08-20T00:39:40.461Z,48.59
2022-08-20T00:42:08.356Z,48.50
2022-08-20T00:44:36.255Z,48.64
2022-08-20T00:47:05.179Z,48.43
2022-08-20T00:49:33.396Z,48.61
2022-08-20T00:52:06.154Z,48.72
2022-08-20T00:54:39.277Z,48.54
2022-08-20T00:57:09.954Z,48.74
2022-08-20T00:59:42.115Z,49.06
2022-08-20T01:02:14.580Z,49.88
2022-08-20T01:04:42.241Z,48.66
2022-08-20T01:07:09.603Z,47.88
2022-08-20T01:09:57.542Z,47.16
2022-08-20T01:12:28.160Z,46.83
2022-08-20T01:14:57.038Z,46.64
2022-08-20T01:17:29.944Z,46.16
2022-08-20T01:20:05.464Z,45.92
2022-08-20T01:22:41.103Z,45.84
2022-08-20T01:25:15.532Z,45.92
2022-08-20T01:27:46.932Z,46.00
2022-08-20T01:30:20.312Z,45.92
2022-08-20T01:32:47.478Z,46.39
2022-08-20T01:35:20.499Z,46.09
2022-08-20T01:37:47.612Z,46.32
2022-08-20T01:40:24.389Z,46.26
2022-08-20T01:42:59.439Z,46.32
2022-08-20T01:45:27.859Z,46.24
2022-08-20T01:47:55.267Z,46.08
2022-08-20T01:50:28.815Z,46.24
2022-08-20T01:53:03.239Z,46.38
2022-08-20T01:55:31.539Z,46.47
2022-08-20T01:58:01.648Z,46.67
2022-08-20T02:00:28.935Z,46.80
2022-08-20T02:02:56.634Z,46.78
2022-08-20T02:05:24.340Z,47.05
2022-08-20T02:07:58.262Z,47.18
2022-08-20T02:10:25.441Z,47.28
2022-08-20T02:12:53.031Z,47.17
2022-08-20T02:15:34.750Z,47.15
2022-08-20T02:18:05.791Z,46.96
2022-08-20T02:20:36.760Z,47.26
2022-08-20T02:23:05.083Z,47.41
2022-08-20T02:25:35.660Z,47.44
2022-08-20T02:28:06.993Z,46.97
2022-08-20T02:30:39.512Z,47.19
2022-08-20T02:33:10.808Z,47.26
2022-08-20T02:35:39.942Z,47.35
2022-08-20T02:38:07.342Z,46.81
2022-08-20T02:40:34.700Z,46.89
2022-08-20T02:43:03.442Z,46.85
2022-08-20T02:45:33.840Z,46.87
2022-08-20T02:48:02.582Z,46.98
2022-08-20T02:50:30.341Z,46.65
2022-08-20T02:52:57.463Z,46.61
2022-08-20T02:55:27.860Z,46.75
2022-08-20T02:57:57.904Z,46.75
2022-08-20T03:00:28.847Z,46.88
2022-08-20T03:02:59.282Z,47.03
2022-08-20T03:05:28.161Z,46.90
2022-08-20T03:07:55.888Z,46.95
2022-08-20T03:10:24.900Z,47.03
2022-08-20T03:12:52.498Z,46.79
2022-08-20T03:15:20.579Z,46.90
2022-08-20T03:17:48.359Z,47.01
2022-08-20T03:20:15.680Z,46.78
2022-08-20T03:22:44.739Z,47.16
2022-08-20T03:25:12.421Z,47.19
2022-08-20T03:27:39.563Z,47.70
2022-08-20T03:30:10.734Z,47.15
2022-08-20T03:32:38.196Z,47.15
2022-08-20T03:35:08.754Z,47.58
2022-08-20T03:37:37.676Z,47.62
2022-08-20T03:40:14.503Z,47.43
2022-08-20T03:42:41.759Z,47.61
2022-08-20T03:45:10.438Z,47.96
2022-08-20T03:47:37.639Z,48.12
2022-08-20T03:50:09.460Z,47.99
2022-08-20T03:52:41.941Z,48.31
2022-08-20T03:55:11.960Z,48.21
2022-08-20T03:57:45.188Z,48.45
2022-08-20T04:00:14.441Z,48.86
2022-08-20T04:02:41.662Z,48.53
2022-08-20T04:05:09.461Z,48.15
2022-08-20T04:07:37.364Z,48.52
2022-08-20T04:10:08.124Z,48.40
2022-08-20T04:12:38.224Z,48.45
2022-08-20T04:15:10.883Z,48.62
2022-08-20T04:17:39.680Z,48.28
2022-08-20T04:20:08.487Z,47.98
2022-08-20T04:22:38.761Z,47.84
2022-08-20T04:25:08.040Z,48.21
2022-08-20T04:27:37.461Z,47.85
2022-08-20T04:30:06.416Z,47.52
2022-08-20T04:32:33.777Z,47.75
2022-08-20T04:35:00.878Z,47.34
2022-08-20T04:37:27.959Z,47.55
2022-08-20T04:39:55.082Z,47.90
2022-08-20T04:42:26.030Z,47.44
2022-08-20T04:44:54.582Z,47.41
2022-08-20T04:47:34.338Z,47.37
2022-08-20T04:50:02.161Z,47.40
2022-08-20T04:52:29.441Z,47.18
2022-08-20T04:54:56.561Z,47.28
2022-08-20T04:57:24.081Z,47.03
2022-08-20T04:59:51.739Z,47.16
2022-08-20T05:02:20.550Z,46.87
2022-08-20T05:04:48.533Z,46.87
2022-08-20T05:07:17.910Z,46.94
2022-08-20T05:09:45.681Z,46.84
2022-08-20T05:12:13.585Z,47.35
2022-08-20T05:14:40.958Z,47.47
2022-08-20T05:17:08.641Z,47.02
2022-08-20T05:19:38.989Z,47.12
2022-08-20T05:22:06.271Z,46.94
2022-08-20T05:24:33.922Z,47.12
2022-08-20T05:27:01.683Z,47.25
2022-08-20T05:29:29.183Z,47.52
2022-08-20T05:31:56.302Z,47.15
2022-08-20T05:34:23.456Z,47.59
2022-08-20T05:36:52.099Z,47.42
2022-08-20T05:39:22.925Z,47.39
2022-08-20T05:41:50.422Z,47.06
2022-08-20T05:44:19.218Z,46.74
2022-08-20T05:46:48.098Z,47.36
2022-08-20T05:49:18.739Z,47.49
2022-08-20T05:51:47.040Z,47.56
2022-08-20T05:54:16.000Z,47.75
2022-08-20T05:56:43.758Z,47.41
2022-08-20T05:59:11.880Z,47.85
2022-08-20T06:01:40.841Z,47.79
2022-08-20T06:04:09.844Z,47.81
2022-08-20T06:06:45.114Z,47.55
2022-08-20T06:09:13.290Z,47.43
2022-08-20T06:11:41.742Z,47.47
2022-08-20T06:14:08.861Z,47.79
2022-08-20T06:16:37.352Z,47.91
2022-08-20T06:19:05.180Z,47.53
2022-08-20T06:21:32.628Z,48.07
2022-08-20T06:24:01.030Z,47.83
2022-08-20T06:26:30.292Z,47.48
2022-08-20T06:28:59.542Z,47.65
2022-08-20T06:31:27.141Z,47.53
2022-08-20T06:33:54.545Z,47.62
2022-08-20T06:36:22.176Z,46.95
2022-08-20T06:38:49.362Z,47.50
2022-08-20T06:41:16.416Z,47.55
2022-08-20T06:43:43.587Z,47.72
2022-08-20T06:46:12.203Z,47.37
2022-08-20T06:48:39.401Z,47.61
2022-08-20T06:51:06.897Z,47.63
2022-08-20T06:53:34.103Z,47.78
2022-08-20T06:56:01.224Z,47.63
2022-08-20T06:58:36.912Z,47.77
2022-08-20T07:01:09.894Z,48.03
2022-08-20T07:03:39.763Z,47.59
2022-08-20T07:06:09.826Z,47.17
2022-08-20T07:08:36.984Z,47.66
2022-08-20T07:11:04.146Z,47.58
2022-08-20T07:13:31.345Z,47.35
2022-08-20T07:15:58.454Z,47.41
2022-08-20T07:18:28.436Z,47.37
2022-08-20T07:20:58.895Z,47.76
2022-08-20T07:23:27.313Z,47.66
2022-08-20T07:25:54.514Z,47.84
2022-08-20T07:28:25.213Z,47.78
2022-08-20T07:30:57.125Z,47.93
2022-08-20T07:33:28.387Z,47.50
2022-08-20T07:35:57.624Z,48.19
2022-08-20T07:38:28.056Z,48.04
2022-08-20T07:40:57.715Z,47.57
2022-08-20T07:43:24.995Z,47.87
2022-08-20T07:45:54.018Z,47.24
2022-08-20T07:48:30.991Z,47.53
2022-08-20T07:51:03.786Z,47.42
2022-08-20T07:53:35.349Z,47.14
2022-08-20T07:56:07.611Z,47.26
2022-08-20T07:58:35.965Z,47.56
2022-08-20T08:01:04.354Z,48.01
2022-08-20T08:03:39.696Z,48.01
2022-08-20T08:06:30.204Z,47.48
2022-08-20T08:09:02.728Z,47.97
2022-08-20T08:11:31.310Z,47.56
2022-08-20T08:14:00.670Z,47.58
2022-08-20T08:16:29.072Z,48.33
2022-08-20T08:18:56.597Z,49.19
2022-08-20T08:21:26.129Z,49.38
2022-08-20T08:23:53.339Z,50.06
2022-08-20T08:26:20.551Z,50.19
2022-08-20T08:28:47.769Z,50.23
2022-08-20T08:31:16.210Z,50.67
2022-08-20T08:33:44.949Z,50.53
2022-08-20T08:36:15.229Z,51.04
2022-08-20T08:38:45.493Z,51.10
2022-08-20T08:41:18.575Z,51.42
2022-08-20T08:43:49.570Z,51.67
2022-08-20T08:46:24.410Z,51.88
2022-08-20T08:48:56.209Z,51.75
2022-08-20T08:51:32.992Z,51.46
2022-08-20T08:54:06.659Z,51.65
2022-08-20T08:56:35.668Z,52.34
2022-08-20T08:59:08.116Z,52.78
2022-08-20T09:01:55.233Z,52.58
2022-08-20T09:04:27.589Z,53.36
2022-08-20T09:06:54.750Z,52.82
2022-08-20T09:09:29.789Z,52.77
2022-08-20T09:12:04.490Z,52.25
2022-08-20T09:14:31.824Z,53.14
2022-08-20T09:16:59.061Z,53.41
2022-08-20T09:19:26.276Z,53.45
2022-08-20T09:21:53.424Z,52.67
2022-08-20T09:24:20.628Z,52.87
2022-08-20T09:26:49.378Z,52.38
2022-08-20T09:29:16.547Z,52.25
2022-08-20T09:31:44.065Z,52.70
2022-08-20T09:34:12.747Z,52.04
2022-08-20T09:36:39.847Z,51.85
2022-08-20T09:39:06.907Z,51.10
2022-08-20T09:41:34.556Z,50.87
2022-08-20T09:44:03.627Z,50.60
2022-08-20T09:46:30.726Z,51.14
2022-08-20T09:48:57.846Z,50.88
2022-08-20T09:51:25.116Z,51.55
2022-08-20T09:53:52.325Z,51.44
2022-08-20T09:56:19.486Z,50.62
2022-08-20T09:58:51.385Z,50.84
2022-08-20T10:01:22.411Z,50.67
2022-08-20T10:03:51.086Z,49.87
2022-08-20T10:06:19.696Z,50.01
2022-08-20T10:08:47.106Z,49.67
2022-08-20T10:11:14.272Z,50.39
2022-08-20T10:13:41.507Z,50.00
2022-08-20T10:16:08.646Z,49.32
2022-08-20T10:18:37.505Z,49.31
2022-08-20T10:21:09.554Z,47.15
2022-08-20T10:23:36.717Z,48.11
2022-08-20T10:26:03.827Z,48.27
2022-08-20T10:28:30.989Z,49.37
2022-08-20T10:30:58.089Z,47.27
2022-08-20T10:33:25.185Z,45.20
2022-08-20T10:35:59.788Z,46.53
2022-08-20T10:38:27.191Z,46.27
2022-08-20T10:40:54.346Z,46.31
2022-08-20T10:43:21.446Z,47.07
2022-08-20T10:45:48.493Z,46.95
2022-08-20T10:48:20.824Z,45.67
2022-08-20T10:50:49.155Z,45.47
2022-08-20T10:53:18.465Z,46.01
2022-08-20T10:55:45.993Z,48.43
2022-08-20T10:58:13.131Z,46.99
2022-08-20T11:00:41.829Z,46.27
2022-08-20T11:03:08.969Z,44.10
2022-08-20T11:05:36.132Z,44.41
2022-08-20T11:08:05.414Z,43.90
2022-08-20T11:10:35.964Z,43.34
2022-08-20T11:13:06.168Z,45.47
2022-08-20T11:15:36.573Z,46.99
2022-08-20T11:18:04.866Z,46.62
2022-08-20T11:20:32.214Z,45.90
2022-08-20T11:22:59.865Z,43.98
2022-08-20T11:25:27.846Z,43.70
2022-08-20T11:27:58.283Z,47.60
2022-08-20T11:30:28.356Z,48.57
2022-08-20T11:32:56.328Z,47.83
2022-08-20T11:35:42.104Z,49.37
2022-08-20T11:38:10.566Z,48.45
2022-08-20T11:40:37.832Z,46.77
2022-08-20T11:43:15.502Z,44.76
2022-08-20T11:45:44.206Z,42.97
2022-08-20T11:48:11.348Z,45.61
2022-08-20T11:50:38.746Z,42.83
2022-08-20T11:53:05.967Z,44.28
2022-08-20T11:55:35.567Z,45.91
2022-08-20T11:58:02.967Z,43.63
2022-08-20T12:00:34.072Z,44.35
2022-08-20T12:03:02.024Z,43.98
2022-08-20T12:05:29.662Z,45.58
2022-08-20T12:07:57.526Z,45.33
2022-08-20T12:10:24.886Z,46.37
2022-08-20T12:12:52.046Z,44.21
2022-08-20T12:15:20.825Z,44.42
2022-08-20T12:17:49.384Z,45.16
2022-08-20T12:20:16.689Z,44.56
2022-08-20T12:22:43.788Z,44.71
2022-08-20T12:25:11.825Z,44.48
2022-08-20T12:27:39.548Z,43.75
2022-08-20T12:30:09.966Z,44.85
2022-08-20T12:32:37.207Z,45.28
2022-08-20T12:35:07.725Z,44.42
2022-08-20T12:37:35.250Z,45.76
2022-08-20T12:40:06.004Z,46.44
2022-08-20T12:42:33.166Z,44.94
2022-08-20T12:45:01.428Z,45.31
2022-08-20T12:47:31.050Z,45.16
2022-08-20T12:50:00.985Z,44.47
2022-08-20T12:52:30.847Z,44.40
2022-08-20T12:54:58.985Z,44.44
2022-08-20T12:57:28.648Z,44.50
2022-08-20T12:59:56.040Z,44.47
2022-08-20T13:02:23.247Z,44.14
2022-08-20T13:04:50.467Z,44.43
2022-08-20T13:07:17.628Z,44.20
2022-08-20T13:09:46.347Z,44.62
2022-08-20T13:12:13.546Z,44.69
2022-08-20T13:14:41.928Z,44.31
2022-08-20T13:17:09.487Z,44.22
2022-08-20T13:19:39.227Z,44.90
2022-08-20T13:22:06.505Z,44.77
2022-08-20T13:24:33.605Z,44.80
2022-08-20T13:27:06.966Z,44.84
2022-08-20T13:29:35.188Z,45.11
2022-08-20T13:32:02.388Z,44.98
2022-08-20T13:34:29.758Z,44.20
2022-08-20T13:36:56.927Z,45.02
2022-08-20T13:39:24.687Z,44.89
2022-08-20T13:41:51.907Z,45.08
2022-08-20T13:44:20.466Z,44.95
2022-08-20T13:46:58.987Z,45.06
2022-08-20T13:49:26.267Z,44.87
2022-08-20T13:52:00.386Z,44.92
2022-08-20T13:54:30.347Z,44.77
2022-08-20T13:57:05.800Z,43.45
2022-08-20T13:59:37.268Z,44.40
2022-08-20T14:02:07.260Z,44.62
2022-08-20T14:04:35.247Z,43.40
2022-08-20T14:07:10.086Z,44.70
2022-08-20T14:09:38.926Z,44.23
2022-08-20T14:12:06.546Z,42.76
2022-08-20T14:14:33.687Z,44.14
2022-08-20T14:17:18.708Z,43.98
2022-08-20T14:19:47.167Z,44.09
2022-08-20T14:22:15.187Z,44.01
2022-08-20T14:24:42.307Z,43.63
2022-08-20T14:27:09.846Z,43.81
2022-08-20T14:29:40.008Z,42.82
2022-08-20T14:32:11.287Z,43.99
2022-08-20T14:34:38.927Z,43.87
2022-08-20T14:37:15.627Z,43.64
2022-08-20T14:39:45.016Z,43.74
2022-08-20T14:42:12.408Z,44.37
2022-08-20T14:44:40.134Z,44.17
2022-08-20T14:47:14.355Z,43.96
2022-08-20T14:49:42.150Z,43.94
2022-08-20T14:52:09.588Z,44.10
2022-08-20T14:54:38.506Z,43.79
2022-08-20T14:57:08.888Z,42.80
2022-08-20T14:59:41.782Z,42.98
2022-08-20T15:02:13.622Z,43.86
2022-08-20T15:04:41.913Z,43.77
2022-08-20T15:07:16.522Z,43.68
2022-08-20T15:09:46.305Z,42.40
2022-08-20T15:12:13.602Z,43.62
2022-08-20T15:14:40.763Z,43.37
2022-08-20T15:17:11.282Z,42.43
2022-08-20T15:19:39.823Z,43.76
2022-08-20T15:22:06.902Z,43.40
2022-08-20T15:24:34.161Z,43.12
2022-08-20T15:27:11.131Z,42.75
2022-08-20T15:29:38.263Z,42.14
2022-08-20T15:32:05.843Z,42.31
2022-08-20T15:34:33.064Z,42.02
2022-08-20T15:37:14.920Z,41.72
2022-08-20T15:39:47.837Z,39.48
2022-08-20T15:42:17.164Z,40.46
2022-08-20T15:44:45.369Z,40.60
2022-08-20T15:47:19.822Z,38.95
2022-08-20T15:49:49.273Z,40.20
2022-08-20T15:52:18.485Z,40.54
2022-08-20T15:54:47.445Z,40.09
2022-08-20T15:57:32.723Z,40.05
2022-08-20T16:00:09.522Z,40.43
2022-08-20T16:02:58.888Z,41.26
2022-08-20T16:05:42.554Z,40.10
2022-08-20T16:08:34.972Z,39.64
2022-08-20T16:11:16.669Z,41.00
2022-08-20T16:13:49.831Z,39.38
2022-08-20T16:16:25.604Z,39.29
2022-08-20T16:18:55.432Z,39.31
2022-08-20T16:21:30.490Z,39.41
2022-08-20T16:23:59.112Z,39.10
2022-08-20T16:26:41.290Z,38.84
2022-08-20T16:29:18.810Z,39.70
2022-08-20T16:31:53.989Z,39.37
2022-08-20T16:34:33.289Z,38.99
2022-08-20T16:37:10.711Z,39.21
2022-08-20T16:39:49.711Z,39.79
2022-08-20T16:42:24.070Z,39.92
2022-08-20T16:44:54.889Z,40.65
2022-08-20T16:47:28.313Z,40.18
2022-08-20T16:50:03.578Z,40.51
2022-08-20T16:52:30.891Z,39.78
2022-08-20T16:54:59.789Z,39.88
2022-08-20T16:57:28.508Z,40.14
2022-08-20T16:59:59.090Z,39.87
2022-08-20T17:02:26.670Z,40.47
2022-08-20T17:04:59.162Z,40.26
2022-08-20T17:07:33.571Z,40.17
2022-08-20T17:10:16.809Z,40.66
2022-08-20T17:12:44.870Z,40.56
2022-08-20T17:15:22.761Z,41.29
2022-08-20T17:17:49.969Z,41.20
2022-08-20T17:20:20.313Z,41.22
2022-08-20T17:22:50.940Z,41.11
2022-08-20T17:25:29.129Z,41.16
2022-08-20T17:27:58.778Z,41.33
2022-08-20T17:30:34.266Z,40.92
2022-08-20T17:33:06.881Z,41.11
2022-08-20T17:35:40.830Z,41.35
2022-08-20T17:38:08.061Z,41.15
2022-08-20T17:40:43.482Z,41.73
2022-08-20T17:43:24.959Z,41.47
2022-08-20T17:45:53.520Z,41.91
2022-08-20T17:48:24.799Z,41.32
2022-08-20T17:50:54.459Z,40.15
2022-08-20T17:53:26.580Z,40.43
2022-08-20T17:56:00.713Z,39.54
2022-08-20T17:58:38.070Z,39.28
2022-08-20T18:01:09.088Z,38.69
2022-08-20T18:03:40.450Z,38.73
2022-08-20T18:06:16.996Z,38.84
2022-08-20T18:08:56.839Z,38.93
2022-08-20T18:11:37.056Z,39.58
2022-08-20T18:14:37.656Z,39.67
2022-08-20T18:17:22.277Z,40.56
2022-08-20T18:20:23.957Z,41.20
2022-08-20T18:22:58.043Z,40.86
2022-08-20T18:25:34.937Z,40.52
2022-08-20T18:28:09.216Z,40.83
2022-08-20T18:30:49.057Z,43.69
2022-08-20T18:33:27.385Z,43.92
2022-08-20T18:36:10.049Z,43.00
2022-08-20T18:38:39.776Z,43.03
2022-08-20T18:41:09.777Z,42.66
2022-08-20T18:43:40.176Z,43.06
2022-08-20T18:46:19.735Z,43.07
2022-08-20T18:48:53.716Z,42.85
2022-08-20T18:51:32.318Z,43.03
2022-08-20T18:53:59.620Z,44.44
2022-08-20T18:56:37.446Z,44.59
2022-08-20T18:59:13.131Z,44.52
2022-08-20T19:01:42.627Z,44.69
2022-08-20T19:04:27.142Z,45.29
2022-08-20T19:07:00.262Z,45.36
2022-08-20T19:09:49.399Z,45.39
2022-08-20T19:12:35.859Z,45.68
2022-08-20T19:15:07.901Z,45.75
2022-08-20T19:17:48.638Z,45.37
2022-08-20T19:20:20.319Z,45.61
2022-08-20T19:22:51.109Z,45.69
2022-08-20T19:25:29.299Z,45.55
2022-08-20T19:27:58.953Z,45.40
2022-08-20T19:30:35.199Z,46.51
2022-08-20T19:33:03.918Z,44.85
2022-08-20T19:35:31.602Z,43.92
2022-08-20T19:37:59.280Z,43.50
2022-08-20T19:40:29.840Z,43.18
2022-08-20T19:43:00.802Z,43.02
2022-08-20T19:45:39.939Z,42.89
2022-08-20T19:48:27.559Z,42.93
2022-08-20T19:51:06.322Z,42.60
2022-08-20T19:53:36.803Z,42.55
2022-08-20T19:56:07.440Z,42.58
2022-08-20T19:58:35.541Z,42.63
2022-08-20T20:01:09.593Z,42.43
2022-08-20T20:03:38.081Z,42.04
2022-08-20T20:06:16.192Z,42.25
2022-08-20T20:08:54.436Z,42.07
2022-08-20T20:11:28.963Z,41.50
2022-08-20T20:14:04.128Z,41.95
2022-08-20T20:16:34.505Z,41.86
2022-08-20T20:19:24.634Z,41.78
2022-08-20T20:21:51.866Z,41.46
2022-08-20T20:24:26.204Z,41.29
2022-08-20T20:26:53.763Z,41.45
2022-08-20T20:29:26.986Z,41.46
2022-08-20T20:31:58.505Z,41.29
2022-08-20T20:34:28.798Z,41.24
2022-08-20T20:37:06.004Z,41.34
2022-08-20T20:39:38.448Z,41.13
2022-08-20T20:42:08.864Z,41.16
2022-08-20T20:44:38.645Z,41.02
2022-08-20T20:47:17.703Z,40.97
2022-08-20T20:49:50.644Z,40.89
2022-08-20T20:52:21.605Z,40.88
2022-08-20T20:54:48.796Z,40.82
2022-08-20T20:57:36.418Z,40.79
2022-08-20T21:00:08.683Z,40.79
2022-08-20T21:02:37.724Z,40.81
2022-08-20T21:05:05.723Z,40.79
2022-08-20T21:07:32.965Z,40.79
2022-08-20T21:10:00.162Z,40.83
2022-08-20T21:12:27.298Z,40.78
2022-08-20T21:14:54.417Z,40.95
2022-08-20T21:17:22.943Z,40.84
2022-08-20T21:19:52.659Z,40.62
2022-08-20T21:22:21.120Z,40.92
2022-08-20T21:24:48.661Z,40.98
2022-08-20T21:27:15.916Z,40.95
2022-08-20T21:29:43.108Z,41.08
2022-08-20T21:32:12.404Z,41.15
2022-08-20T21:34:42.446Z,41.13
2022-08-20T21:37:12.406Z,41.37
2022-08-20T21:39:40.180Z,41.23
2022-08-20T21:42:28.310Z,41.31
2022-08-20T21:44:56.927Z,41.49
2022-08-20T21:47:24.469Z,41.41
2022-08-20T21:49:52.185Z,41.27
2022-08-20T21:52:20.946Z,41.33
2022-08-20T21:54:48.005Z,41.40
2022-08-20T21:57:19.949Z,41.44
2022-08-20T21:59:48.846Z,41.45
2022-08-20T22:02:16.127Z,41.57
2022-08-20T22:04:43.747Z,41.85
2022-08-20T22:07:12.287Z,41.82
2022-08-20T22:09:40.905Z,41.72
2022-08-20T22:12:23.048Z,41.75
2022-08-20T22:14:51.626Z,41.69
2022-08-20T22:17:19.465Z,41.73
2022-08-20T22:19:46.608Z,41.74
2022-08-20T22:22:15.347Z,41.67
2022-08-20T22:24:44.426Z,41.56
2022-08-20T22:27:12.305Z,41.67
2022-08-20T22:29:39.566Z,41.74
2022-08-20T22:32:07.008Z,41.67
2022-08-20T22:34:37.146Z,41.65
2022-08-20T22:37:05.227Z,41.61
2022-08-20T22:39:32.428Z,41.50
2022-08-20T22:42:01.047Z,41.50
2022-08-20T22:44:28.186Z,41.38
2022-08-20T22:46:59.744Z,41.22
2022-08-20T22:49:30.664Z,41.30
2022-08-20T22:51:58.409Z,41.21
2022-08-20T22:54:26.267Z,41.15
2022-08-20T22:56:54.845Z,41.02
2022-08-20T22:59:24.191Z,41.01
2022-08-20T23:01:52.265Z,41.10
2022-08-20T23:04:26.946Z,40.98
2022-08-20T23:06:55.945Z,41.26
2022-08-20T23:09:23.625Z,41.10
2022-08-20T23:11:52.146Z,41.32
2022-08-20T23:14:20.387Z,41.22
2022-08-20T23:16:59.566Z,41.21
2022-08-20T23:19:26.785Z,41.04
2022-08-20T23:21:53.866Z,41.21
2022-08-20T23:24:21.384Z,41.38
2022-08-20T23:26:52.625Z,41.41
2022-08-20T23:29:22.216Z,41.38
2022-08-20T23:31:55.466Z,41.39
2022-08-20T23:34:22.832Z,41.86
2022-08-20T23:36:50.786Z,42.16
2022-08-20T23:39:17.945Z,41.94
2022-08-20T23:41:47.859Z,42.15
2022-08-20T23:44:25.896Z,42.34
2022-08-20T23:46:58.368Z,42.28
2022-08-20T23:49:26.186Z,42.25
2022-08-20T23:51:53.530Z,42.69
2022-08-20T23:54:20.805Z,42.49
2022-08-20T23:56:47.998Z,42.44
2022-08-20T23:59:15.137Z,42.68
